createdAt,value
2023-03-26T00:02:23.422Z,99.90
2023-03-26T00:04:53.171Z,99.90
2023-03-26T00:07:21.089Z,99.90
2023-03-26T00:09:49.014Z,99.90
2023-03-26T00:12:17.038Z,99.90
2023-03-26T00:14:44.979Z,99.90
2023-03-26T00:17:12.958Z,99.90
2023-03-26T00:19:43.012Z,99.90
2023-03-26T00:22:13.552Z,99.90
2023-03-26T00:24:45.845Z,99.90
2023-03-26T00:27:14.572Z,99.90
2023-03-26T00:29:42.530Z,99.90
2023-03-26T00:32:10.532Z,99.90
2023-03-26T00:34:41.246Z,99.90
2023-03-26T00:37:12.456Z,99.90
2023-03-26T00:39:40.485Z,99.90
2023-03-26T00:42:08.450Z,99.90
2023-03-26T00:44:36.489Z,99.90
2023-03-26T00:47:04.600Z,99.90
2023-03-26T00:49:32.712Z,99.90
2023-03-26T00:52:02.925Z,99.90
2023-03-26T00:54:32.210Z,99.90
2023-03-26T00:57:00.146Z,99.90
2023-03-26T00:59:30.417Z,99.90
2023-03-26T01:01:58.503Z,99.90
2023-03-26T01:04:31.039Z,99.90
2023-03-26T01:07:02.698Z,99.90
2023-03-26T01:09:35.794Z,99.90
2023-03-26T01:12:07.091Z,99.90
2023-03-26T01:14:35.232Z,99.90
2023-03-26T01:17:04.608Z,99.90
2023-03-26T01:19:39.027Z,99.90
2023-03-26T01:22:09.608Z,99.90
2023-03-26T01:24:39.446Z,99.90
2023-03-26T01:27:19.090Z,99.90
2023-03-26T01:29:54.152Z,99.90
2023-03-26T01:32:31.972Z,99.90
2023-03-26T01:35:14.072Z,99.90
2023-03-26T01:37:52.773Z,99.90
2023-03-26T01:40:29.204Z,99.90
2023-03-26T01:43:03.787Z,99.90
2023-03-26T01:45:34.996Z,99.90
2023-03-26T01:48:03.692Z,99.90
2023-03-26T01:50:31.610Z,99.90
2023-03-26T01:52:59.518Z,99.90
2023-03-26T01:55:36.455Z,99.90
2023-03-26T01:58:13.756Z,99.90
2023-03-26T02:00:49.529Z,99.90
2023-03-26T02:03:26.410Z,99.90
2023-03-26T02:05:58.371Z,99.90
2023-03-26T02:08:35.612Z,99.90
2023-03-26T02:11:11.550Z,99.90
2023-03-26T02:13:39.982Z,99.90
2023-03-26T02:16:11.666Z,99.90
2023-03-26T02:18:39.866Z,99.90
2023-03-26T02:21:12.297Z,99.90
2023-03-26T02:23:40.719Z,99.90
2023-03-26T02:26:11.306Z,99.90
2023-03-26T02:28:39.766Z,99.90
2023-03-26T02:31:10.908Z,99.90
2023-03-26T02:33:39.460Z,99.90
2023-03-26T02:36:08.803Z,99.90
2023-03-26T02:38:37.114Z,99.90
2023-03-26T02:41:05.612Z,99.90
2023-03-26T02:43:34.959Z,99.90
2023-03-26T02:46:02.968Z,99.90
2023-03-26T02:48:31.328Z,99.90
2023-03-26T02:50:59.309Z,99.90
2023-03-26T02:53:29.725Z,99.90
2023-03-26T02:55:58.013Z,99.90
2023-03-26T02:58:26.320Z,99.90
2023-03-26T03:00:56.100Z,99.90
2023-03-26T03:03:24.387Z,99.90
2023-03-26T03:05:53.244Z,99.90
2023-03-26T03:08:22.805Z,99.90
2023-03-26T03:10:57.917Z,99.90
2023-03-26T03:13:25.908Z,99.90
2023-03-26T03:15:55.351Z,99.90
2023-03-26T03:18:23.501Z,99.90
2023-03-26T03:20:51.579Z,99.90
2023-03-26T03:23:19.520Z,99.90
2023-03-26T03:25:47.954Z,99.90
2023-03-26T03:28:18.221Z,99.90
2023-03-26T03:30:47.056Z,99.90
2023-03-26T03:33:16.401Z,99.90
2023-03-26T03:35:45.959Z,99.90
2023-03-26T03:38:13.988Z,99.90
2023-03-26T03:40:41.900Z,99.90
2023-03-26T03:43:09.833Z,99.90
2023-03-26T03:45:37.793Z,99.90
2023-03-26T03:48:06.254Z,99.90
2023-03-26T03:50:35.939Z,99.90
2023-03-26T03:53:05.596Z,99.90
2023-03-26T03:55:33.579Z,99.90
2023-03-26T03:58:01.656Z,99.90
2023-03-26T04:00:30.634Z,99.90
2023-03-26T04:02:58.742Z,99.90
2023-03-26T04:05:26.757Z,99.90
2023-03-26T04:07:56.018Z,99.90
2023-03-26T04:10:23.979Z,99.90
2023-03-26T04:12:51.969Z,99.90
2023-03-26T04:15:20.001Z,99.90
2023-03-26T04:17:47.963Z,99.90
2023-03-26T04:20:16.153Z,99.90
2023-03-26T04:22:44.273Z,99.90
2023-03-26T04:25:15.486Z,99.90
2023-03-26T04:27:44.157Z,99.90
2023-03-26T04:30:16.092Z,99.90
2023-03-26T04:32:44.660Z,99.90
2023-03-26T04:35:16.596Z,99.90
2023-03-26T04:37:46.011Z,99.90
2023-03-26T04:40:18.347Z,99.90
2023-03-26T04:42:46.524Z,99.90
2023-03-26T04:45:15.602Z,99.90
2023-03-26T04:47:43.671Z,99.90
2023-03-26T04:50:12.930Z,99.90
2023-03-26T04:52:43.296Z,99.90
2023-03-26T04:55:23.135Z,99.90
2023-03-26T04:57:55.938Z,99.90
2023-03-26T05:00:24.713Z,99.90
2023-03-26T05:02:53.692Z,99.90
2023-03-26T05:05:21.752Z,99.90
2023-03-26T05:07:49.683Z,99.90
2023-03-26T05:10:20.300Z,99.90
2023-03-26T05:12:48.511Z,99.90
2023-03-26T05:15:17.131Z,99.90
2023-03-26T05:17:45.087Z,99.90
2023-03-26T05:20:20.617Z,99.90
2023-03-26T05:22:49.152Z,99.90
2023-03-26T05:25:19.067Z,99.90
2023-03-26T05:27:47.595Z,99.90
2023-03-26T05:30:17.774Z,99.90
2023-03-26T05:32:47.266Z,99.90
2023-03-26T05:35:17.001Z,99.90
2023-03-26T05:37:46.028Z,99.90
2023-03-26T05:40:17.105Z,99.90
2023-03-26T05:42:46.600Z,99.90
2023-03-26T05:45:16.126Z,99.90
2023-03-26T05:47:44.320Z,99.90
2023-03-26T05:50:12.788Z,99.90
2023-03-26T05:52:40.721Z,99.90
2023-03-26T05:55:09.489Z,99.90
2023-03-26T05:57:37.603Z,99.90
2023-03-26T06:00:10.979Z,99.90
2023-03-26T06:02:39.119Z,99.90
2023-03-26T06:05:08.000Z,99.90
2023-03-26T06:07:36.008Z,99.90
2023-03-26T06:10:04.337Z,99.90
2023-03-26T06:12:32.283Z,99.90
2023-03-26T06:15:00.234Z,99.90
2023-03-26T06:17:29.858Z,99.90
2023-03-26T06:19:58.520Z,99.90
2023-03-26T06:22:26.457Z,99.90
2023-03-26T06:24:54.402Z,99.90
2023-03-26T06:27:22.312Z,99.90
2023-03-26T06:29:50.257Z,99.90
2023-03-26T06:32:20.335Z,99.90
2023-03-26T06:34:49.988Z,99.90
2023-03-26T06:37:18.362Z,99.90
2023-03-26T06:39:46.310Z,99.90
2023-03-26T06:42:14.256Z,99.90
2023-03-26T06:44:42.153Z,99.90
2023-03-26T06:47:10.079Z,99.90
2023-03-26T06:49:38.241Z,99.90
2023-03-26T06:52:07.736Z,99.90
2023-03-26T06:54:35.659Z,99.90
2023-03-26T06:57:03.652Z,99.90
2023-03-26T06:59:31.829Z,99.90
2023-03-26T07:01:59.763Z,99.90
2023-03-26T07:04:27.835Z,99.90
2023-03-26T07:06:55.952Z,99.90
2023-03-26T07:09:26.372Z,99.90
2023-03-26T07:11:54.354Z,99.90
2023-03-26T07:14:22.512Z,99.90
2023-03-26T07:16:50.730Z,99.90
2023-03-26T07:19:18.881Z,99.90
2023-03-26T07:21:47.643Z,99.90
2023-03-26T07:24:16.773Z,99.90
2023-03-26T07:26:56.184Z,99.90
2023-03-26T07:29:34.881Z,99.90
2023-03-26T07:32:12.159Z,99.90
2023-03-26T07:34:49.842Z,99.90
2023-03-26T07:37:28.522Z,99.90
2023-03-26T07:40:00.370Z,99.90
2023-03-26T07:42:39.592Z,99.90
2023-03-26T07:45:20.656Z,99.90
2023-03-26T07:47:53.499Z,99.90
2023-03-26T07:50:23.598Z,99.90
2023-03-26T07:52:52.388Z,99.90
2023-03-26T07:55:21.973Z,99.90
2023-03-26T07:58:02.096Z,99.90
2023-03-26T08:00:35.867Z,99.90
2023-03-26T08:03:29.161Z,99.90
2023-03-26T08:06:06.369Z,99.90
2023-03-26T08:08:45.857Z,99.90
2023-03-26T08:11:25.219Z,99.90
2023-03-26T08:14:05.582Z,99.90
2023-03-26T08:16:38.991Z,99.90
2023-03-26T08:19:16.631Z,99.90
2023-03-26T08:21:49.116Z,99.90
2023-03-26T08:24:23.895Z,99.90
2023-03-26T08:26:58.552Z,99.90
2023-03-26T08:29:37.459Z,99.90
2023-03-26T08:32:10.379Z,99.90
2023-03-26T08:34:38.995Z,99.90
2023-03-26T08:37:06.941Z,99.90
2023-03-26T08:39:34.979Z,99.90
2023-03-26T08:42:33.124Z,99.90
2023-03-26T08:45:43.903Z,99.90
2023-03-26T08:49:03.756Z,99.90
2023-03-26T08:52:12.624Z,99.90
2023-03-26T08:55:16.680Z,99.90
2023-03-26T08:58:29.589Z,99.90
2023-03-26T09:01:22.386Z,99.90
2023-03-26T09:04:24.490Z,99.90
2023-03-26T09:07:19.510Z,99.90
2023-03-26T09:10:20.306Z,99.90
2023-03-26T09:13:29.891Z,99.90
2023-03-26T09:16:22.426Z,99.90
2023-03-26T09:19:29.834Z,99.90
2023-03-26T09:22:24.525Z,99.90
2023-03-26T09:25:39.823Z,99.90
2023-03-26T09:28:34.838Z,99.90
2023-03-26T09:31:16.141Z,99.90
2023-03-26T09:33:59.284Z,99.90
2023-03-26T09:36:55.112Z,99.90
2023-03-26T09:39:36.415Z,99.90
2023-03-26T09:42:14.955Z,99.90
2023-03-26T09:45:10.568Z,99.90
2023-03-26T09:47:58.711Z,99.90
2023-03-26T09:50:38.262Z,99.90
2023-03-26T09:53:48.827Z,99.90
2023-03-26T09:56:30.804Z,99.90
2023-03-26T09:59:33.579Z,99.90
2023-03-26T10:02:15.454Z,99.90
2023-03-26T10:05:05.956Z,99.90
2023-03-26T10:07:55.912Z,99.90
2023-03-26T10:10:32.499Z,99.90
2023-03-26T10:13:15.031Z,99.90
2023-03-26T10:16:00.258Z,99.90
2023-03-26T10:18:38.835Z,99.90
2023-03-26T10:21:13.361Z,99.90
2023-03-26T10:23:57.064Z,99.90
2023-03-26T10:27:08.307Z,99.90
2023-03-26T10:30:14.642Z,99.90
2023-03-26T10:32:53.048Z,99.90
2023-03-26T10:35:30.642Z,99.90
2023-03-26T10:38:12.784Z,99.90
2023-03-26T10:40:48.978Z,99.90
2023-03-26T10:44:01.237Z,99.90
2023-03-26T10:47:03.759Z,99.90
2023-03-26T10:49:49.901Z,99.90
2023-03-26T10:52:21.443Z,99.90
2023-03-26T10:54:56.894Z,99.90
2023-03-26T10:57:35.029Z,99.90
2023-03-26T11:00:15.033Z,99.90
2023-03-26T11:02:54.870Z,99.90
2023-03-26T11:05:33.932Z,99.90
2023-03-26T11:08:06.529Z,99.90
2023-03-26T11:10:48.122Z,99.90
2023-03-26T11:13:26.332Z,99.90
2023-03-26T11:16:03.380Z,99.90
2023-03-26T11:18:40.348Z,99.90
2023-03-26T11:21:18.890Z,99.90
2023-03-26T11:24:04.715Z,99.90
2023-03-26T11:26:45.427Z,99.90
2023-03-26T11:29:35.509Z,99.90
2023-03-26T11:32:07.151Z,99.90
2023-03-26T11:34:40.524Z,99.90
2023-03-26T11:37:16.378Z,99.90
2023-03-26T11:39:50.933Z,99.90
2023-03-26T11:42:22.774Z,99.90
2023-03-26T11:44:55.619Z,99.90
2023-03-26T11:47:30.061Z,99.90
2023-03-26T11:50:01.498Z,99.90
2023-03-26T11:52:29.767Z,99.90
2023-03-26T11:54:59.353Z,99.90
2023-03-26T11:57:33.123Z,99.90
2023-03-26T12:00:15.816Z,99.90
2023-03-26T12:02:44.210Z,99.90
2023-03-26T12:05:20.265Z,99.90
2023-03-26T12:07:53.039Z,99.90
2023-03-26T12:10:31.073Z,99.90
2023-03-26T12:13:02.313Z,99.90
2023-03-26T12:15:31.988Z,99.90
2023-03-26T12:18:18.535Z,99.90
2023-03-26T12:20:48.167Z,99.90
2023-03-26T12:23:37.608Z,99.90
2023-03-26T12:26:13.068Z,99.90
2023-03-26T12:28:46.590Z,99.90
2023-03-26T12:31:18.299Z,99.90
2023-03-26T12:33:52.891Z,99.90
2023-03-26T12:36:26.677Z,99.90
2023-03-26T12:39:16.663Z,99.90
2023-03-26T12:44:43.586Z,99.90
2023-03-26T12:44:51.580Z,99.90
2023-03-26T12:48:01.473Z,99.90
2023-03-26T12:50:15.596Z,98.30
2023-03-26T12:52:57.518Z,91.10
2023-03-26T12:55:42.221Z,87.70
2023-03-26T12:58:53.494Z,75.70
2023-03-26T13:01:33.133Z,76.20
2023-03-26T13:04:17.545Z,72.80
2023-03-26T13:07:00.443Z,61.40
2023-03-26T13:09:53.057Z,57.50
2023-03-26T13:12:34.230Z,57.10
2023-03-26T13:15:18.923Z,51.70
2023-03-26T13:17:59.342Z,52.00
2023-03-26T13:20:33.084Z,47.30
2023-03-26T13:23:08.303Z,45.40
2023-03-26T13:25:44.536Z,41.90
2023-03-26T13:28:22.569Z,41.70
2023-03-26T13:30:58.371Z,37.90
2023-03-26T13:33:44.183Z,39.30
2023-03-26T13:36:23.677Z,39.70
2023-03-26T13:39:13.117Z,37.60
2023-03-26T13:42:07.174Z,37.90
2023-03-26T13:44:46.157Z,38.50
2023-03-26T13:47:18.881Z,39.80
2023-03-26T13:49:52.771Z,37.70
2023-03-26T13:52:26.124Z,38.30
2023-03-26T13:55:14.386Z,39.30
2023-03-26T13:57:49.113Z,38.80
2023-03-26T14:00:21.695Z,40.20
2023-03-26T14:02:57.718Z,41.40
2023-03-26T14:05:31.709Z,42.30
2023-03-26T14:08:04.619Z,41.40
2023-03-26T14:10:37.262Z,42.50
2023-03-26T14:13:14.575Z,43.80
2023-03-26T14:15:48.136Z,44.50
2023-03-26T14:18:29.307Z,46.60
2023-03-26T14:21:23.944Z,48.60
2023-03-26T14:24:19.132Z,48.80
2023-03-26T14:27:15.539Z,50.20
2023-03-26T14:29:59.091Z,50.50
2023-03-26T14:32:41.790Z,50.80
2023-03-26T14:35:29.269Z,53.00
2023-03-26T14:38:40.791Z,56.00
2023-03-26T14:41:23.787Z,58.20
2023-03-26T14:44:19.060Z,57.60
2023-03-26T14:47:14.682Z,66.70
2023-03-26T14:50:21.494Z,60.50
2023-03-26T14:52:51.505Z,59.90
2023-03-26T14:55:40.310Z,73.80
2023-03-26T14:58:30.756Z,68.60
2023-03-26T15:01:25.438Z,68.50
2023-03-26T15:04:28.275Z,69.30
2023-03-26T15:07:33.634Z,67.80
2023-03-26T15:10:32.414Z,71.50
2023-03-26T15:13:38.082Z,78.90
2023-03-26T15:16:17.853Z,76.60
2023-03-26T15:19:34.762Z,79.20
2023-03-26T15:22:43.990Z,76.50
2023-03-26T15:25:50.382Z,76.50
2023-03-26T15:29:04.308Z,84.90
2023-03-26T15:32:13.964Z,87.00
2023-03-26T15:35:10.530Z,79.70
2023-03-26T15:38:26.663Z,85.20
2023-03-26T15:41:06.316Z,79.00
2023-03-26T15:44:25.512Z,73.60
2023-03-26T15:47:31.114Z,71.70
2023-03-26T15:50:11.202Z,78.60
2023-03-26T15:52:48.462Z,91.40
2023-03-26T15:55:31.272Z,93.00
2023-03-26T15:58:09.063Z,90.70
2023-03-26T16:00:42.928Z,85.40
2023-03-26T16:03:25.606Z,86.20
2023-03-26T16:06:14.089Z,80.20
2023-03-26T16:08:47.659Z,80.90
2023-03-26T16:11:48.816Z,85.80
2023-03-26T16:14:23.777Z,97.30
2023-03-26T16:16:55.133Z,99.90
2023-03-26T16:19:51.899Z,99.90
2023-03-26T16:22:57.157Z,99.90
2023-03-26T16:25:33.392Z,98.90
2023-03-26T16:28:33.818Z,99.90
2023-03-26T16:31:37.857Z,99.90
2023-03-26T16:34:31.356Z,99.90
2023-03-26T16:37:00.608Z,99.90
2023-03-26T16:39:43.640Z,99.90
2023-03-26T16:42:39.307Z,99.90
2023-03-26T16:45:23.553Z,96.50
2023-03-26T16:48:01.496Z,99.90
2023-03-26T16:50:42.534Z,99.90
2023-03-26T16:53:24.075Z,99.90
2023-03-26T16:55:59.708Z,99.90
2023-03-26T16:58:34.407Z,99.90
2023-03-26T17:01:10.922Z,99.90
2023-03-26T17:03:55.461Z,99.90
2023-03-26T17:06:53.299Z,99.90
2023-03-26T17:09:31.612Z,99.90
2023-03-26T17:12:06.651Z,99.90
2023-03-26T17:14:50.325Z,99.90
2023-03-26T17:17:47.487Z,99.90
2023-03-26T17:20:26.579Z,99.90
2023-03-26T17:23:05.926Z,99.90
2023-03-26T17:25:41.437Z,99.90
2023-03-26T17:28:23.405Z,99.90
2023-03-26T17:31:04.329Z,99.90
2023-03-26T17:33:36.689Z,99.90
2023-03-26T17:36:29.319Z,99.90
2023-03-26T17:39:20.606Z,99.90
2023-03-26T17:41:55.602Z,99.90
2023-03-26T17:44:39.222Z,99.90
2023-03-26T17:47:14.190Z,99.90
2023-03-26T17:49:45.318Z,99.90
2023-03-26T17:52:21.656Z,99.90
2023-03-26T17:54:53.391Z,99.90
2023-03-26T17:57:26.395Z,99.90
2023-03-26T17:59:58.540Z,99.90
2023-03-26T18:02:35.868Z,99.90
2023-03-26T18:05:12.151Z,99.90
2023-03-26T18:08:10.984Z,99.90
2023-03-26T18:10:52.858Z,99.90
2023-03-26T18:13:41.085Z,99.90
2023-03-26T18:16:15.547Z,99.90
2023-03-26T18:18:49.632Z,99.90
2023-03-26T18:21:25.216Z,99.90
2023-03-26T18:23:53.913Z,99.90
2023-03-26T18:26:34.697Z,99.90
2023-03-26T18:29:20.953Z,99.90
2023-03-26T18:31:54.178Z,99.90
2023-03-26T18:34:24.270Z,99.90
2023-03-26T18:37:06.536Z,99.90
2023-03-26T18:39:34.458Z,99.90
2023-03-26T18:42:02.671Z,99.90
2023-03-26T18:44:33.235Z,99.90
2023-03-26T18:47:01.222Z,99.90
2023-03-26T18:49:30.181Z,99.90
2023-03-26T18:51:59.557Z,99.90
2023-03-26T18:54:35.295Z,99.90
2023-03-26T18:57:14.942Z,99.90
2023-03-26T18:59:45.578Z,99.90
2023-03-26T19:02:16.298Z,99.90
2023-03-26T19:04:47.131Z,99.90
2023-03-26T19:07:22.458Z,99.90
2023-03-26T19:09:52.582Z,99.90
2023-03-26T19:12:23.820Z,99.90
2023-03-26T19:14:55.216Z,99.90
2023-03-26T19:17:24.656Z,99.90
2023-03-26T19:19:52.797Z,99.90
2023-03-26T19:22:24.281Z,99.90
2023-03-26T19:24:57.545Z,99.90
2023-03-26T19:27:26.208Z,99.90
2023-03-26T19:29:54.610Z,99.90
2023-03-26T19:32:32.026Z,99.90
2023-03-26T19:35:01.987Z,99.90
2023-03-26T19:37:32.441Z,99.90
2023-03-26T19:40:14.111Z,99.90
2023-03-26T19:42:44.991Z,99.90
2023-03-26T19:45:18.927Z,99.90
2023-03-26T19:47:56.921Z,99.90
2023-03-26T19:50:35.361Z,99.90
2023-03-26T19:53:18.854Z,99.90
2023-03-26T19:55:58.637Z,99.90
2023-03-26T19:58:27.565Z,99.90
2023-03-26T20:00:56.998Z,99.90
2023-03-26T20:03:29.051Z,99.90
2023-03-26T20:05:57.341Z,99.90
2023-03-26T20:08:27.939Z,99.90
2023-03-26T20:10:57.965Z,99.90
2023-03-26T20:13:26.736Z,99.90
2023-03-26T20:16:05.411Z,99.90
2023-03-26T20:18:34.556Z,99.90
2023-03-26T20:21:02.781Z,99.90
2023-03-26T20:23:32.131Z,99.90
2023-03-26T20:26:00.044Z,99.90
2023-03-26T20:28:28.018Z,99.90
2023-03-26T20:30:56.182Z,99.90
2023-03-26T20:33:26.755Z,99.90
2023-03-26T20:35:55.475Z,99.90
2023-03-26T20:38:36.640Z,99.90
2023-03-26T20:41:12.862Z,99.90
2023-03-26T20:43:40.879Z,99.90
2023-03-26T20:46:12.302Z,99.90
2023-03-26T20:48:40.262Z,99.90
2023-03-26T20:51:10.254Z,99.90
2023-03-26T20:53:38.168Z,99.90
2023-03-26T20:58:36.764Z,99.90
2023-03-26T21:01:04.835Z,99.90
2023-03-26T21:03:33.156Z,99.90
2023-03-26T21:06:02.173Z,99.90
2023-03-26T21:08:35.109Z,99.90
2023-03-26T21:11:04.866Z,99.90
2023-03-26T21:13:38.704Z,99.90
2023-03-26T21:16:08.040Z,99.90
2023-03-26T21:18:36.825Z,99.90
2023-03-26T21:21:21.116Z,99.90
2023-03-26T21:23:59.080Z,99.90
2023-03-26T21:26:33.606Z,99.90
2023-03-26T21:29:11.760Z,99.90
2023-03-26T21:31:40.412Z,99.90
2023-03-26T21:34:09.608Z,99.90
2023-03-26T21:36:38.111Z,99.90
2023-03-26T21:39:06.731Z,99.90
2023-03-26T21:41:43.621Z,99.90
2023-03-26T21:44:14.188Z,99.90
2023-03-26T21:46:43.773Z,99.90
2023-03-26T21:49:13.007Z,99.90
2023-03-26T21:51:41.544Z,99.90
2023-03-26T21:54:22.984Z,99.90
2023-03-26T21:57:05.888Z,99.90
2023-03-26T21:59:41.419Z,99.90
2023-03-26T22:02:17.475Z,99.90
2023-03-26T22:04:49.591Z,99.90
2023-03-26T22:07:21.391Z,99.90
2023-03-26T22:09:50.150Z,99.90
2023-03-26T22:12:18.194Z,99.90
2023-03-26T22:14:47.527Z,99.90
2023-03-26T22:17:15.493Z,99.90
2023-03-26T22:19:43.562Z,99.90
2023-03-26T22:22:12.452Z,99.90
2023-03-26T22:24:40.371Z,99.90
2023-03-26T22:27:08.346Z,99.90
2023-03-26T22:29:36.378Z,99.90
2023-03-26T22:32:06.271Z,99.90
2023-03-26T22:34:35.111Z,99.90
2023-03-26T22:37:03.088Z,99.90
2023-03-26T22:39:31.251Z,99.90
2023-03-26T22:42:01.377Z,99.90
2023-03-26T22:44:29.386Z,99.90
2023-03-26T22:46:57.322Z,99.90
2023-03-26T22:49:27.411Z,99.90
2023-03-26T22:51:55.370Z,99.90
2023-03-26T22:54:23.323Z,99.90
2023-03-26T22:56:52.171Z,99.90
2023-03-26T22:59:20.294Z,99.90
2023-03-26T23:01:48.422Z,99.90
2023-03-26T23:04:31.636Z,99.90
2023-03-26T23:07:01.720Z,99.90
2023-03-26T23:09:29.674Z,99.90
2023-03-26T23:11:57.737Z,99.90
2023-03-26T23:14:25.744Z,99.90
2023-03-26T23:16:53.671Z,99.90
2023-03-26T23:19:21.705Z,99.90
2023-03-26T23:21:49.715Z,99.90
2023-03-26T23:24:19.080Z,99.90
2023-03-26T23:26:51.138Z,99.90
2023-03-26T23:29:19.339Z,99.90
2023-03-26T23:31:47.401Z,99.90
2023-03-26T23:34:16.804Z,99.90
2023-03-26T23:36:45.492Z,99.90
2023-03-26T23:39:13.407Z,99.90
2023-03-26T23:41:43.360Z,99.90
2023-03-26T23:44:13.629Z,99.90
2023-03-26T23:46:42.745Z,99.90
2023-03-26T23:49:12.091Z,99.90
2023-03-26T23:51:40.083Z,99.90
2023-03-26T23:54:08.616Z,99.90
2023-03-26T23:56:36.679Z,99.90
2023-03-26T23:59:06.184Z,99.90
